Weather History for KCKC - October, 2014

Change the Weather History Date:

Tuesday, October 14, 2014

  Actual Average Record
Temperature  
Mean Temperature 48 °F -  
Max Temperature 60 °F 47 °F 60 °F (2005)
Min Temperature 35 °F 32 °F 19 °F (2002)
Degree Days  
Heating Degree Days 18    
Moisture  
Dew Point 36 °F    
Average Humidity 65    
Maximum Humidity 87    
Minimum Humidity 34    
Precipitation  
Precipitation 0.00 in - - ()
Sea Level Pressure  
Sea Level Pressure 29.91 in    
Wind  
Wind Speed 9 mph (NNW)    
Max Wind Speed 18 mph    
Max Gust Speed 28 mph    
Visibility 10 miles    
Events      
Averages and records for this station are not official NWS values.
T = Trace of Precipitation, MM = Missing Value Source: NWS Daily Summary

Daily Weather History Graph

Daily Weather History Graph

Search for Another Location

Airport or City:

Trip Planner

Search our weather history database for the weather conditions in past years. The results will help you decide how hot, cold, wet, or windy it might be!

Date:

Astronomy

Oct. 14, 2014 Rise Set
Actual Time 7:19 AM CDT 6:14 PM CDT
Civil Twilight 6:48 AM CDT 6:46 PM CDT
Nautical Twilight 6:12 AM CDT 7:21 PM CDT
Astronomical Twilight 5:36 AM CDT 7:57 PM CDT
Moon 11:08 PM CDT (10/14) 1:33 PM CDT (10/14)
Length of Visible Light 11h 58m
Length of Day
10h 55m
Waning Gibbous, 61% of the Moon is Illuminated
Oct 14
Waning Gibbous
Oct 15
Last Quarter
Oct 23
New
Oct 30
First Quarter
Nov 6
Full

Hourly Weather History & Observations

Time (CDT) Temp. Windchill Dew Point Humidity Pressure Visibility Wind Dir Wind Speed Gust Speed Precip Events Conditions
1:05 AM 46.4 °F 42.4 °F 41.0 °F 81% 29.83 in 10.0 mi NNW 8.1 mph - N/A   Scattered Clouds
1:13 AM 46.4 °F 41.9 °F 41.0 °F 81% 29.83 in 10.0 mi North 9.2 mph - N/A   Clear
1:34 AM 46.4 °F 41.5 °F 41.0 °F 81% 29.83 in 10.0 mi North 10.4 mph - N/A   Scattered Clouds
1:53 AM 46.4 °F 41.5 °F 41.0 °F 81% 29.83 in 10.0 mi NNW 10.4 mph 17.3 mph N/A   Scattered Clouds
2:13 AM 46.4 °F 41.5 °F 41.0 °F 81% 29.83 in 10.0 mi North 10.4 mph - N/A   Mostly Cloudy
2:33 AM 46.4 °F 41.9 °F 41.0 °F 81% 29.84 in 10.0 mi North 9.2 mph 17.3 mph N/A   Mostly Cloudy
2:54 AM 46.4 °F 41.9 °F 41.0 °F 81% 29.84 in 10.0 mi North 9.2 mph - N/A   Scattered Clouds
3:13 AM 46.4 °F 41.5 °F 41.0 °F 81% 29.83 in 10.0 mi North 10.4 mph 18.4 mph N/A   Clear
3:33 AM 46.4 °F 41.1 °F 41.0 °F 81% 29.82 in 10.0 mi North 11.5 mph 17.3 mph N/A   Clear
3:54 AM 46.4 °F 41.1 °F 41.0 °F 81% 29.83 in 10.0 mi NNW 11.5 mph - N/A   Clear
4:13 AM 46.4 °F 41.1 °F 41.0 °F 81% 29.84 in 10.0 mi NNW 11.5 mph 18.4 mph N/A   Clear
4:33 AM 46.4 °F 41.9 °F 41.0 °F 81% 29.84 in 10.0 mi NNW 9.2 mph 17.3 mph N/A   Clear
4:54 AM 44.6 °F 39.7 °F 41.0 °F 87% 29.85 in 10.0 mi NNW 9.2 mph - N/A   Clear
5:14 AM 44.6 °F 39.7 °F 41.0 °F 87% 29.84 in 10.0 mi NNW 9.2 mph - N/A   Clear
5:33 AM 44.6 °F 39.7 °F 41.0 °F 87% 29.84 in 10.0 mi North 9.2 mph - N/A   Clear
5:53 AM 44.6 °F 40.2 °F 41.0 °F 87% 29.84 in 10.0 mi NNW 8.1 mph - N/A   Clear
6:14 AM 44.6 °F 40.7 °F 41.0 °F 87% 29.85 in 10.0 mi NNW 6.9 mph - N/A   Clear
6:34 AM 44.6 °F 40.2 °F 41.0 °F 87% 29.85 in 10.0 mi NNW 8.1 mph - N/A   Clear
6:53 AM 44.6 °F 42.2 °F 41.0 °F 87% 29.87 in 10.0 mi NNW 4.6 mph - N/A   Clear
7:13 AM 44.6 °F 40.7 °F 39.2 °F 81% 29.87 in 10.0 mi NNW 6.9 mph - N/A   Clear
7:34 AM 44.6 °F 40.7 °F 39.2 °F 81% 29.87 in 10.0 mi NNW 6.9 mph - N/A   Clear
7:54 AM 44.6 °F 41.4 °F 39.2 °F 81% 29.87 in 10.0 mi NNW 5.8 mph - N/A   Clear
8:13 AM 44.6 °F 41.4 °F 39.2 °F 81% 29.88 in 10.0 mi NNW 5.8 mph - N/A   Clear
8:33 AM 44.6 °F 40.2 °F 41.0 °F 87% 29.88 in 10.0 mi NNW 8.1 mph - N/A   Clear
8:54 AM 46.4 °F 42.9 °F 41.0 °F 81% 29.88 in 10.0 mi NNW 6.9 mph - N/A   Clear
9:13 AM 46.4 °F 41.9 °F 41.0 °F 81% 29.88 in 10.0 mi NNW 9.2 mph - N/A   Clear
9:33 AM 50.0 °F - 42.8 °F 76% 29.88 in 10.0 mi NNW 11.5 mph - N/A   Clear
9:54 AM 51.8 °F - 39.2 °F 62% 29.88 in 10.0 mi North 15.0 mph 20.7 mph N/A   Clear
10:13 AM 50.0 °F - 37.4 °F 62% 29.89 in 10.0 mi North 16.1 mph 23.0 mph N/A   Clear
10:34 AM 51.8 °F - 37.4 °F 58% 29.90 in 10.0 mi North 15.0 mph 18.4 mph N/A   Clear
10:54 AM 53.6 °F - 37.4 °F 54% 29.89 in 10.0 mi North 11.5 mph 21.9 mph N/A   Clear
11:13 AM 55.4 °F - 35.6 °F 47% 29.90 in 10.0 mi North 18.4 mph 24.2 mph N/A   Clear
11:33 AM 55.4 °F - 35.6 °F 47% 29.90 in 10.0 mi North 17.3 mph 25.3 mph N/A   Clear
11:54 AM 55.4 °F - 35.6 °F 47% 29.90 in 10.0 mi North 16.1 mph 21.9 mph N/A   Clear
12:13 PM 55.4 °F - 33.8 °F 44% 29.91 in 10.0 mi North 12.7 mph 27.6 mph N/A   Clear
12:33 PM 57.2 °F - 32.0 °F 38% 29.90 in 10.0 mi North 17.3 mph 24.2 mph N/A   Clear
12:54 PM 59.0 °F - 33.8 °F 39% 29.90 in 10.0 mi North 13.8 mph 20.7 mph N/A   Clear
1:13 PM 60.8 °F - 33.8 °F 36% 29.90 in 10.0 mi NNW 13.8 mph 18.4 mph N/A   Clear
1:33 PM 59.0 °F - 32.0 °F 36% 29.90 in 10.0 mi NNW 11.5 mph 19.6 mph N/A   Clear
1:54 PM 59.0 °F - 32.0 °F 36% 29.91 in 10.0 mi NNE 12.7 mph 19.6 mph N/A   Clear
2:13 PM 59.0 °F - 30.2 °F 34% 29.92 in 10.0 mi NNW 11.5 mph 17.3 mph N/A   Clear
2:33 PM 60.8 °F - 32.0 °F 34% 29.92 in 10.0 mi NNW 10.4 mph - N/A   Clear
2:53 PM 60.8 °F - 32.0 °F 34% 29.92 in 10.0 mi North 11.5 mph - N/A   Clear
3:14 PM 59.0 °F - 32.0 °F 36% 29.92 in 10.0 mi NNW 13.8 mph - N/A   Clear
3:33 PM 59.0 °F - 30.2 °F 34% 29.93 in 10.0 mi North 10.4 mph 18.4 mph N/A   Clear
3:53 PM 59.0 °F - 32.0 °F 36% 29.93 in 10.0 mi North 9.2 mph - N/A   Clear
4:14 PM 59.0 °F - 30.2 °F 34% 29.93 in 10.0 mi NW 9.2 mph 16.1 mph N/A   Clear
4:33 PM 57.2 °F - 32.0 °F 38% 29.94 in 10.0 mi NNW 12.7 mph 16.1 mph N/A   Clear
4:53 PM 57.2 °F - 33.8 °F 41% 29.95 in 10.0 mi NNW 6.9 mph - N/A   Clear
5:14 PM 55.4 °F - 33.8 °F 44% 29.95 in 10.0 mi North 10.4 mph - N/A   Clear
5:33 PM 55.4 °F - 33.8 °F 44% 29.97 in 10.0 mi NNW 6.9 mph - N/A   Clear
5:53 PM 53.6 °F - 33.8 °F 47% 29.97 in 10.0 mi NNW 5.8 mph - N/A   Clear
6:14 PM 51.8 °F - 33.8 °F 50% 29.98 in 10.0 mi NNW 5.8 mph - N/A   Clear
6:34 PM 48.2 °F - 33.8 °F 58% 29.98 in 10.0 mi NW 4.6 mph - N/A   Clear
6:54 PM 48.2 °F - 33.8 °F 58% 29.98 in 10.0 mi NW 3.5 mph - N/A   Clear
7:13 PM 46.4 °F - 33.8 °F 62% 29.98 in 10.0 mi Calm Calm - N/A   Clear
7:33 PM 44.6 °F 42.2 °F 33.8 °F 66% 29.98 in 10.0 mi NNW 4.6 mph - N/A   Clear
7:54 PM 42.8 °F 39.3 °F 33.8 °F 70% 29.98 in 10.0 mi NNW 5.8 mph - N/A   Clear
8:14 PM 42.8 °F 40.1 °F 33.8 °F 70% 29.99 in 10.0 mi NNW 4.6 mph - N/A   Clear
8:34 PM 42.8 °F 41.1 °F 33.8 °F 70% 30.00 in 10.0 mi North 3.5 mph - N/A   Clear
8:53 PM 42.8 °F 41.1 °F 33.8 °F 70% 30.00 in 10.0 mi NNW 3.5 mph - N/A   Clear
9:13 PM 37.4 °F 32.8 °F 30.2 °F 75% 30.00 in 10.0 mi NNW 5.8 mph - N/A   Clear
9:33 PM 35.6 °F 30.7 °F 30.2 °F 81% 30.00 in 10.0 mi NNW 5.8 mph - N/A   Clear
9:54 PM 35.6 °F 29.9 °F 30.2 °F 81% 30.01 in 10.0 mi NNW 6.9 mph - N/A   Clear
10:13 PM 35.6 °F 30.7 °F 30.2 °F 81% 30.01 in 10.0 mi North 5.8 mph - N/A   Clear
10:33 PM 37.4 °F 33.8 °F 32.0 °F 81% 30.02 in 10.0 mi North 4.6 mph - N/A   Clear
10:54 PM 37.4 °F 34.9 °F 30.2 °F 75% 30.01 in 10.0 mi North 3.5 mph - N/A   Clear
11:13 PM 35.6 °F 30.7 °F 30.2 °F 81% 30.02 in 10.0 mi North 5.8 mph - N/A   Clear
11:33 PM 35.6 °F 30.7 °F 30.2 °F 81% 30.02 in 10.0 mi North 5.8 mph - N/A   Clear
11:54 PM 37.4 °F 32.1 °F 30.2 °F 75% 30.01 in 10.0 mi North 6.9 mph - N/A   Clear